sensor_id;sensor_type;location;lat;lon;timestamp;P1;durP1;ratioP1;P2;durP2;ratioP2
2257;SDS011;1136;51.574;7.706;2022-12-29T00:00:02;2.37;;;1.50;;
2257;SDS011;1136;51.574;7.706;2022-12-29T00:02:30;1.70;;;1.60;;
2257;SDS011;1136;51.574;7.706;2022-12-29T00:04:57;1.40;;;1.30;;
2257;SDS011;1136;51.574;7.706;2022-12-29T00:07:23;1.27;;;1.17;;
2257;SDS011;1136;51.574;7.706;2022-12-29T00:09:50;1.67;;;1.13;;
2257;SDS011;1136;51.574;7.706;2022-12-29T00:12:16;1.10;;;1.00;;
2257;SDS011;1136;51.574;7.706;2022-12-29T00:14:43;1.00;;;1.00;;
2257;SDS011;1136;51.574;7.706;2022-12-29T00:17:28;1.40;;;1.30;;
2257;SDS011;1136;51.574;7.706;2022-12-29T00:19:55;1.17;;;1.07;;
2257;SDS011;1136;51.574;7.706;2022-12-29T00:22:40;1.43;;;1.10;;
2257;SDS011;1136;51.574;7.706;2022-12-29T00:25:24;1.90;;;1.17;;
2257;SDS011;1136;51.574;7.706;2022-12-29T00:28:10;2.40;;;1.03;;
2257;SDS011;1136;51.574;7.706;2022-12-29T00:30:59;3.23;;;1.93;;
2257;SDS011;1136;51.574;7.706;2022-12-29T00:33:44;1.00;;;1.00;;
2257;SDS011;1136;51.574;7.706;2022-12-29T00:36:31;1.10;;;1.00;;
2257;SDS011;1136;51.574;7.706;2022-12-29T00:39:00;2.13;;;0.93;;
2257;SDS011;1136;51.574;7.706;2022-12-29T00:41:48;1.53;;;0.93;;
2257;SDS011;1136;51.574;7.706;2022-12-29T00:44:33;1.43;;;1.10;;
2257;SDS011;1136;51.574;7.706;2022-12-29T00:47:00;0.90;;;0.73;;
2257;SDS011;1136;51.574;7.706;2022-12-29T00:49:30;1.90;;;0.90;;
2257;SDS011;1136;51.574;7.706;2022-12-29T00:52:02;1.00;;;0.90;;
2257;SDS011;1136;51.574;7.706;2022-12-29T00:54:34;1.57;;;0.90;;
2257;SDS011;1136;51.574;7.706;2022-12-29T00:57:02;1.33;;;0.80;;
2257;SDS011;1136;51.574;7.706;2022-12-29T00:59:30;1.30;;;0.90;;
2257;SDS011;1136;51.574;7.706;2022-12-29T01:01:57;0.80;;;0.77;;
2257;SDS011;1136;51.574;7.706;2022-12-29T01:04:24;0.80;;;0.70;;
2257;SDS011;1136;51.574;7.706;2022-12-29T01:06:53;1.20;;;1.10;;
2257;SDS011;1136;51.574;7.706;2022-12-29T01:09:20;0.70;;;0.67;;
2257;SDS011;1136;51.574;7.706;2022-12-29T01:12:05;0.80;;;0.73;;
2257;SDS011;1136;51.574;7.706;2022-12-29T01:14:33;0.80;;;0.70;;
2257;SDS011;1136;51.574;7.706;2022-12-29T01:16:59;2.17;;;0.80;;
2257;SDS011;1136;51.574;7.706;2022-12-29T01:19:26;1.20;;;1.00;;
2257;SDS011;1136;51.574;7.706;2022-12-29T01:21:52;1.00;;;0.90;;
2257;SDS011;1136;51.574;7.706;2022-12-29T01:24:19;1.53;;;1.00;;
2257;SDS011;1136;51.574;7.706;2022-12-29T01:26:46;0.80;;;0.80;;
2257;SDS011;1136;51.574;7.706;2022-12-29T01:29:13;1.63;;;1.07;;
2257;SDS011;1136;51.574;7.706;2022-12-29T01:31:39;1.33;;;0.80;;
2257;SDS011;1136;51.574;7.706;2022-12-29T01:34:06;0.80;;;0.70;;
2257;SDS011;1136;51.574;7.706;2022-12-29T01:36:33;1.40;;;0.73;;
2257;SDS011;1136;51.574;7.706;2022-12-29T01:39:00;2.37;;;1.30;;
2257;SDS011;1136;51.574;7.706;2022-12-29T01:41:26;0.70;;;0.70;;
2257;SDS011;1136;51.574;7.706;2022-12-29T01:43:57;1.47;;;0.70;;
2257;SDS011;1136;51.574;7.706;2022-12-29T01:49:19;1.57;;;0.70;;
2257;SDS011;1136;51.574;7.706;2022-12-29T01:52:07;0.73;;;0.73;;
2257;SDS011;1136;51.574;7.706;2022-12-29T01:57:09;1.17;;;0.77;;
2257;SDS011;1136;51.574;7.706;2022-12-29T01:59:40;0.70;;;0.60;;
2257;SDS011;1136;51.574;7.706;2022-12-29T02:02:30;0.80;;;0.80;;
2257;SDS011;1136;51.574;7.706;2022-12-29T02:04:59;0.77;;;0.77;;
2257;SDS011;1136;51.574;7.706;2022-12-29T02:07:30;0.80;;;0.73;;
2257;SDS011;1136;51.574;7.706;2022-12-29T02:09:57;0.80;;;0.80;;
2257;SDS011;1136;51.574;7.706;2022-12-29T02:12:24;0.80;;;0.70;;
2257;SDS011;1136;51.574;7.706;2022-12-29T02:14:53;1.47;;;0.93;;
2257;SDS011;1136;51.574;7.706;2022-12-29T02:44:36;0.70;;;0.70;;
2257;SDS011;1136;51.574;7.706;2022-12-29T02:47:10;0.70;;;0.60;;
2257;SDS011;1136;51.574;7.706;2022-12-29T02:52:22;1.87;;;0.60;;
2257;SDS011;1136;51.574;7.706;2022-12-29T02:54:53;1.20;;;0.83;;
2257;SDS011;1136;51.574;7.706;2022-12-29T02:59:47;0.63;;;0.53;;
2257;SDS011;1136;51.574;7.706;2022-12-29T03:07:55;0.70;;;0.60;;
2257;SDS011;1136;51.574;7.706;2022-12-29T03:16:16;9.47;;;1.27;;
2257;SDS011;1136;51.574;7.706;2022-12-29T03:21:24;0.70;;;0.70;;
2257;SDS011;1136;51.574;7.706;2022-12-29T03:24:15;1.30;;;0.90;;
2257;SDS011;1136;51.574;7.706;2022-12-29T03:26:43;0.80;;;0.60;;
2257;SDS011;1136;51.574;7.706;2022-12-29T03:29:12;2.27;;;0.83;;
2257;SDS011;1136;51.574;7.706;2022-12-29T03:31:40;1.30;;;0.70;;
2257;SDS011;1136;51.574;7.706;2022-12-29T03:34:07;0.80;;;0.73;;
2257;SDS011;1136;51.574;7.706;2022-12-29T03:37:09;0.90;;;0.77;;
2257;SDS011;1136;51.574;7.706;2022-12-29T03:39:29;1.30;;;0.90;;
2257;SDS011;1136;51.574;7.706;2022-12-29T03:41:58;1.27;;;1.00;;
2257;SDS011;1136;51.574;7.706;2022-12-29T03:44:31;1.07;;;0.80;;
2257;SDS011;1136;51.574;7.706;2022-12-29T03:47:02;1.23;;;0.70;;
2257;SDS011;1136;51.574;7.706;2022-12-29T03:49:30;0.80;;;0.80;;
2257;SDS011;1136;51.574;7.706;2022-12-29T03:51:56;0.80;;;0.80;;
2257;SDS011;1136;51.574;7.706;2022-12-29T03:54:23;0.90;;;0.80;;
2257;SDS011;1136;51.574;7.706;2022-12-29T03:56:49;1.67;;;0.80;;
2257;SDS011;1136;51.574;7.706;2022-12-29T03:59:16;1.43;;;0.73;;
2257;SDS011;1136;51.574;7.706;2022-12-29T04:01:43;2.90;;;0.80;;
2257;SDS011;1136;51.574;7.706;2022-12-29T04:04:10;1.20;;;0.80;;
2257;SDS011;1136;51.574;7.706;2022-12-29T04:06:37;0.70;;;0.70;;
2257;SDS011;1136;51.574;7.706;2022-12-29T04:09:03;2.77;;;0.90;;
2257;SDS011;1136;51.574;7.706;2022-12-29T04:11:30;1.63;;;0.97;;
2257;SDS011;1136;51.574;7.706;2022-12-29T04:13:59;2.40;;;0.93;;
2257;SDS011;1136;51.574;7.706;2022-12-29T04:16:26;3.30;;;1.03;;
2257;SDS011;1136;51.574;7.706;2022-12-29T04:18:52;1.20;;;1.00;;
2257;SDS011;1136;51.574;7.706;2022-12-29T04:21:19;1.13;;;1.03;;
2257;SDS011;1136;51.574;7.706;2022-12-29T04:23:45;1.30;;;1.20;;
2257;SDS011;1136;51.574;7.706;2022-12-29T04:26:12;1.00;;;0.83;;
2257;SDS011;1136;51.574;7.706;2022-12-29T04:28:39;0.83;;;0.70;;
2257;SDS011;1136;51.574;7.706;2022-12-29T04:31:06;1.07;;;0.97;;
2257;SDS011;1136;51.574;7.706;2022-12-29T04:33:33;0.83;;;0.80;;
2257;SDS011;1136;51.574;7.706;2022-12-29T04:36:00;1.00;;;0.90;;
2257;SDS011;1136;51.574;7.706;2022-12-29T04:38:26;1.13;;;0.90;;
2257;SDS011;1136;51.574;7.706;2022-12-29T04:40:53;0.77;;;0.77;;
2257;SDS011;1136;51.574;7.706;2022-12-29T04:43:19;0.90;;;0.90;;
2257;SDS011;1136;51.574;7.706;2022-12-29T04:45:47;2.30;;;1.00;;
2257;SDS011;1136;51.574;7.706;2022-12-29T04:48:14;1.47;;;0.80;;
2257;SDS011;1136;51.574;7.706;2022-12-29T04:50:41;1.40;;;0.63;;
2257;SDS011;1136;51.574;7.706;2022-12-29T04:53:08;0.80;;;0.80;;
2257;SDS011;1136;51.574;7.706;2022-12-29T04:55:34;1.90;;;0.80;;
2257;SDS011;1136;51.574;7.706;2022-12-29T04:58:01;0.70;;;0.70;;
2257;SDS011;1136;51.574;7.706;2022-12-29T05:00:27;0.97;;;0.83;;
2257;SDS011;1136;51.574;7.706;2022-12-29T05:02:54;1.67;;;0.70;;
2257;SDS011;1136;51.574;7.706;2022-12-29T05:05:22;1.27;;;0.90;;
2257;SDS011;1136;51.574;7.706;2022-12-29T05:07:48;2.10;;;1.03;;
2257;SDS011;1136;51.574;7.706;2022-12-29T05:10:15;1.37;;;0.90;;
2257;SDS011;1136;51.574;7.706;2022-12-29T05:12:43;1.07;;;0.83;;
2257;SDS011;1136;51.574;7.706;2022-12-29T05:15:11;1.60;;;0.90;;
2257;SDS011;1136;51.574;7.706;2022-12-29T05:17:37;1.47;;;0.90;;
2257;SDS011;1136;51.574;7.706;2022-12-29T05:20:04;0.97;;;0.90;;
2257;SDS011;1136;51.574;7.706;2022-12-29T05:22:31;2.30;;;0.70;;
2257;SDS011;1136;51.574;7.706;2022-12-29T05:24:58;0.90;;;0.80;;
2257;SDS011;1136;51.574;7.706;2022-12-29T05:27:25;1.10;;;0.90;;
2257;SDS011;1136;51.574;7.706;2022-12-29T05:29:51;1.43;;;0.93;;
2257;SDS011;1136;51.574;7.706;2022-12-29T05:32:18;1.20;;;0.90;;
2257;SDS011;1136;51.574;7.706;2022-12-29T05:34:44;3.20;;;1.00;;
2257;SDS011;1136;51.574;7.706;2022-12-29T05:37:11;1.00;;;0.90;;
2257;SDS011;1136;51.574;7.706;2022-12-29T05:39:37;4.10;;;0.97;;
2257;SDS011;1136;51.574;7.706;2022-12-29T05:42:04;1.33;;;0.90;;
2257;SDS011;1136;51.574;7.706;2022-12-29T05:44:30;1.40;;;1.00;;
2257;SDS011;1136;51.574;7.706;2022-12-29T05:46:57;2.40;;;1.20;;
2257;SDS011;1136;51.574;7.706;2022-12-29T05:49:23;1.63;;;0.90;;
2257;SDS011;1136;51.574;7.706;2022-12-29T05:51:50;1.40;;;1.00;;
2257;SDS011;1136;51.574;7.706;2022-12-29T05:54:16;1.00;;;0.90;;
2257;SDS011;1136;51.574;7.706;2022-12-29T05:56:43;2.07;;;1.57;;
2257;SDS011;1136;51.574;7.706;2022-12-29T05:59:10;1.20;;;1.10;;
2257;SDS011;1136;51.574;7.706;2022-12-29T06:01:36;1.10;;;0.80;;
2257;SDS011;1136;51.574;7.706;2022-12-29T06:04:03;1.10;;;1.00;;
2257;SDS011;1136;51.574;7.706;2022-12-29T06:06:30;3.23;;;1.10;;
2257;SDS011;1136;51.574;7.706;2022-12-29T06:08:56;0.80;;;0.80;;
2257;SDS011;1136;51.574;7.706;2022-12-29T06:11:23;1.57;;;0.90;;
2257;SDS011;1136;51.574;7.706;2022-12-29T06:13:49;0.90;;;0.80;;
2257;SDS011;1136;51.574;7.706;2022-12-29T06:16:16;1.90;;;1.07;;
2257;SDS011;1136;51.574;7.706;2022-12-29T06:18:43;2.03;;;1.10;;
2257;SDS011;1136;51.574;7.706;2022-12-29T06:21:09;1.00;;;0.80;;
2257;SDS011;1136;51.574;7.706;2022-12-29T06:23:36;2.30;;;0.73;;
2257;SDS011;1136;51.574;7.706;2022-12-29T06:26:03;1.33;;;0.90;;
2257;SDS011;1136;51.574;7.706;2022-12-29T06:28:29;1.43;;;0.90;;
2257;SDS011;1136;51.574;7.706;2022-12-29T06:30:56;1.17;;;1.00;;
2257;SDS011;1136;51.574;7.706;2022-12-29T06:33:23;1.73;;;0.80;;
2257;SDS011;1136;51.574;7.706;2022-12-29T06:35:50;2.20;;;0.90;;
2257;SDS011;1136;51.574;7.706;2022-12-29T06:38:16;3.20;;;1.20;;
2257;SDS011;1136;51.574;7.706;2022-12-29T06:40:43;1.13;;;0.83;;
2257;SDS011;1136;51.574;7.706;2022-12-29T06:43:11;1.27;;;1.17;;
2257;SDS011;1136;51.574;7.706;2022-12-29T06:45:38;1.40;;;1.10;;
2257;SDS011;1136;51.574;7.706;2022-12-29T06:48:06;1.77;;;1.00;;
2257;SDS011;1136;51.574;7.706;2022-12-29T06:50:33;1.83;;;0.83;;
2257;SDS011;1136;51.574;7.706;2022-12-29T06:53:00;1.03;;;1.00;;
2257;SDS011;1136;51.574;7.706;2022-12-29T06:55:26;1.63;;;1.53;;
2257;SDS011;1136;51.574;7.706;2022-12-29T06:57:55;2.00;;;1.00;;
2257;SDS011;1136;51.574;7.706;2022-12-29T07:00:22;3.90;;;1.37;;
2257;SDS011;1136;51.574;7.706;2022-12-29T07:02:49;3.20;;;1.00;;
2257;SDS011;1136;51.574;7.706;2022-12-29T07:05:16;1.07;;;0.97;;
2257;SDS011;1136;51.574;7.706;2022-12-29T07:07:43;1.83;;;1.13;;
2257;SDS011;1136;51.574;7.706;2022-12-29T07:10:09;2.00;;;1.17;;
2257;SDS011;1136;51.574;7.706;2022-12-29T07:12:36;1.20;;;1.10;;
2257;SDS011;1136;51.574;7.706;2022-12-29T07:15:03;1.00;;;0.90;;
2257;SDS011;1136;51.574;7.706;2022-12-29T07:17:29;2.00;;;1.00;;
2257;SDS011;1136;51.574;7.706;2022-12-29T07:19:56;4.40;;;0.90;;
2257;SDS011;1136;51.574;7.706;2022-12-29T07:22:22;1.07;;;0.97;;
2257;SDS011;1136;51.574;7.706;2022-12-29T07:24:49;6.30;;;0.83;;
2257;SDS011;1136;51.574;7.706;2022-12-29T07:27:15;1.00;;;0.90;;
2257;SDS011;1136;51.574;7.706;2022-12-29T07:29:42;1.23;;;0.90;;
2257;SDS011;1136;51.574;7.706;2022-12-29T07:32:08;1.93;;;1.13;;
2257;SDS011;1136;51.574;7.706;2022-12-29T07:34:35;1.37;;;0.90;;
2257;SDS011;1136;51.574;7.706;2022-12-29T07:37:01;2.93;;;1.37;;
2257;SDS011;1136;51.574;7.706;2022-12-29T07:39:28;1.73;;;0.90;;
2257;SDS011;1136;51.574;7.706;2022-12-29T07:41:55;2.07;;;1.07;;
2257;SDS011;1136;51.574;7.706;2022-12-29T07:44:29;1.70;;;1.13;;
2257;SDS011;1136;51.574;7.706;2022-12-29T07:46:56;1.17;;;0.90;;
2257;SDS011;1136;51.574;7.706;2022-12-29T07:49:24;4.33;;;1.30;;
2257;SDS011;1136;51.574;7.706;2022-12-29T07:51:52;3.73;;;1.37;;
2257;SDS011;1136;51.574;7.706;2022-12-29T07:54:19;1.23;;;0.83;;
2257;SDS011;1136;51.574;7.706;2022-12-29T07:56:45;3.00;;;1.27;;
2257;SDS011;1136;51.574;7.706;2022-12-29T07:59:12;2.90;;;1.30;;
2257;SDS011;1136;51.574;7.706;2022-12-29T08:01:38;5.57;;;1.37;;
2257;SDS011;1136;51.574;7.706;2022-12-29T08:04:05;2.23;;;0.90;;
2257;SDS011;1136;51.574;7.706;2022-12-29T08:06:32;3.63;;;1.47;;
2257;SDS011;1136;51.574;7.706;2022-12-29T08:08:59;1.73;;;0.97;;
2257;SDS011;1136;51.574;7.706;2022-12-29T08:11:36;1.50;;;0.90;;
2257;SDS011;1136;51.574;7.706;2022-12-29T08:14:03;2.17;;;1.00;;
2257;SDS011;1136;51.574;7.706;2022-12-29T08:16:30;1.50;;;1.13;;
2257;SDS011;1136;51.574;7.706;2022-12-29T08:18:57;2.30;;;1.17;;
2257;SDS011;1136;51.574;7.706;2022-12-29T08:21:23;2.40;;;1.20;;
2257;SDS011;1136;51.574;7.706;2022-12-29T08:23:50;6.20;;;1.20;;
2257;SDS011;1136;51.574;7.706;2022-12-29T08:26:16;3.43;;;1.07;;
2257;SDS011;1136;51.574;7.706;2022-12-29T08:28:43;2.23;;;1.10;;
2257;SDS011;1136;51.574;7.706;2022-12-29T08:31:10;3.90;;;1.10;;
2257;SDS011;1136;51.574;7.706;2022-12-29T08:33:38;3.83;;;1.30;;
2257;SDS011;1136;51.574;7.706;2022-12-29T08:36:05;2.63;;;1.70;;
2257;SDS011;1136;51.574;7.706;2022-12-29T08:38:33;4.60;;;1.43;;
2257;SDS011;1136;51.574;7.706;2022-12-29T08:40:59;1.30;;;1.13;;
2257;SDS011;1136;51.574;7.706;2022-12-29T08:43:29;1.83;;;1.47;;
2257;SDS011;1136;51.574;7.706;2022-12-29T08:45:57;2.20;;;1.60;;
2257;SDS011;1136;51.574;7.706;2022-12-29T08:48:24;2.27;;;1.20;;
2257;SDS011;1136;51.574;7.706;2022-12-29T08:50:52;1.77;;;0.97;;
2257;SDS011;1136;51.574;7.706;2022-12-29T08:53:19;2.70;;;1.00;;
2257;SDS011;1136;51.574;7.706;2022-12-29T08:55:45;4.57;;;1.30;;
2257;SDS011;1136;51.574;7.706;2022-12-29T08:58:12;1.90;;;1.07;;
2257;SDS011;1136;51.574;7.706;2022-12-29T09:00:41;3.80;;;1.47;;
2257;SDS011;1136;51.574;7.706;2022-12-29T09:03:08;2.80;;;1.40;;
2257;SDS011;1136;51.574;7.706;2022-12-29T09:05:35;3.30;;;1.40;;
2257;SDS011;1136;51.574;7.706;2022-12-29T09:08:02;8.03;;;1.40;;
2257;SDS011;1136;51.574;7.706;2022-12-29T09:10:29;4.83;;;1.20;;
2257;SDS011;1136;51.574;7.706;2022-12-29T09:12:55;5.47;;;1.63;;
2257;SDS011;1136;51.574;7.706;2022-12-29T09:15:22;4.23;;;2.03;;
2257;SDS011;1136;51.574;7.706;2022-12-29T09:17:48;2.00;;;1.13;;
2257;SDS011;1136;51.574;7.706;2022-12-29T09:20:16;2.70;;;1.20;;
2257;SDS011;1136;51.574;7.706;2022-12-29T09:22:44;4.57;;;1.67;;
2257;SDS011;1136;51.574;7.706;2022-12-29T09:25:12;4.70;;;1.67;;
2257;SDS011;1136;51.574;7.706;2022-12-29T09:27:39;4.47;;;1.30;;
2257;SDS011;1136;51.574;7.706;2022-12-29T09:30:07;2.00;;;1.20;;
2257;SDS011;1136;51.574;7.706;2022-12-29T09:32:35;3.50;;;1.50;;
2257;SDS011;1136;51.574;7.706;2022-12-29T09:35:09;7.30;;;1.50;;
2257;SDS011;1136;51.574;7.706;2022-12-29T09:37:36;2.30;;;1.63;;
2257;SDS011;1136;51.574;7.706;2022-12-29T09:40:03;1.90;;;1.63;;
2257;SDS011;1136;51.574;7.706;2022-12-29T09:45:42;4.27;;;1.50;;
2257;SDS011;1136;51.574;7.706;2022-12-29T09:48:15;4.00;;;1.00;;
2257;SDS011;1136;51.574;7.706;2022-12-29T09:50:47;2.60;;;1.40;;
2257;SDS011;1136;51.574;7.706;2022-12-29T09:53:27;3.67;;;1.70;;
2257;SDS011;1136;51.574;7.706;2022-12-29T09:55:59;2.87;;;1.17;;
2257;SDS011;1136;51.574;7.706;2022-12-29T09:58:41;2.63;;;1.50;;
2257;SDS011;1136;51.574;7.706;2022-12-29T10:01:17;2.37;;;1.30;;
2257;SDS011;1136;51.574;7.706;2022-12-29T10:03:50;2.60;;;1.50;;
2257;SDS011;1136;51.574;7.706;2022-12-29T10:06:31;4.10;;;1.33;;
2257;SDS011;1136;51.574;7.706;2022-12-29T10:17:42;3.33;;;2.20;;
2257;SDS011;1136;51.574;7.706;2022-12-29T10:20:28;4.70;;;2.17;;
2257;SDS011;1136;51.574;7.706;2022-12-29T10:25:56;2.00;;;1.47;;
2257;SDS011;1136;51.574;7.706;2022-12-29T10:28:34;3.10;;;2.10;;
2257;SDS011;1136;51.574;7.706;2022-12-29T10:31:15;2.60;;;1.30;;
2257;SDS011;1136;51.574;7.706;2022-12-29T10:33:48;2.57;;;1.43;;
2257;SDS011;1136;51.574;7.706;2022-12-29T10:36:20;2.07;;;1.50;;
2257;SDS011;1136;51.574;7.706;2022-12-29T10:41:49;2.37;;;1.50;;
2257;SDS011;1136;51.574;7.706;2022-12-29T10:44:17;1.53;;;1.43;;
2257;SDS011;1136;51.574;7.706;2022-12-29T10:46:52;3.23;;;1.27;;
2257;SDS011;1136;51.574;7.706;2022-12-29T10:49:21;1.60;;;1.40;;
2257;SDS011;1136;51.574;7.706;2022-12-29T10:51:51;3.67;;;1.40;;
2257;SDS011;1136;51.574;7.706;2022-12-29T10:54:23;2.00;;;1.30;;
2257;SDS011;1136;51.574;7.706;2022-12-29T10:57:08;4.40;;;1.63;;
2257;SDS011;1136;51.574;7.706;2022-12-29T10:59:37;4.23;;;1.90;;
2257;SDS011;1136;51.574;7.706;2022-12-29T11:07:21;2.93;;;1.40;;
2257;SDS011;1136;51.574;7.706;2022-12-29T11:09:52;2.90;;;1.13;;
2257;SDS011;1136;51.574;7.706;2022-12-29T11:14:47;5.77;;;1.70;;
2257;SDS011;1136;51.574;7.706;2022-12-29T11:17:15;3.30;;;1.50;;
2257;SDS011;1136;51.574;7.706;2022-12-29T11:19:43;6.30;;;1.73;;
2257;SDS011;1136;51.574;7.706;2022-12-29T11:22:27;5.40;;;1.57;;
2257;SDS011;1136;51.574;7.706;2022-12-29T11:24:54;6.03;;;1.30;;
2257;SDS011;1136;51.574;7.706;2022-12-29T11:27:32;3.23;;;1.20;;
2257;SDS011;1136;51.574;7.706;2022-12-29T11:29:59;7.33;;;1.93;;
2257;SDS011;1136;51.574;7.706;2022-12-29T11:32:26;2.80;;;1.23;;
2257;SDS011;1136;51.574;7.706;2022-12-29T11:34:56;2.17;;;1.23;;
2257;SDS011;1136;51.574;7.706;2022-12-29T11:37:28;4.70;;;1.77;;
2257;SDS011;1136;51.574;7.706;2022-12-29T11:42:52;7.63;;;1.60;;
2257;SDS011;1136;51.574;7.706;2022-12-29T11:45:22;4.67;;;1.57;;
2257;SDS011;1136;51.574;7.706;2022-12-29T11:47:51;3.33;;;1.50;;
2257;SDS011;1136;51.574;7.706;2022-12-29T11:50:23;4.27;;;1.77;;
2257;SDS011;1136;51.574;7.706;2022-12-29T11:52:57;1.87;;;1.27;;
2257;SDS011;1136;51.574;7.706;2022-12-29T11:55:26;1.87;;;1.40;;
2257;SDS011;1136;51.574;7.706;2022-12-29T11:57:53;2.83;;;1.67;;
2257;SDS011;1136;51.574;7.706;2022-12-29T12:00:22;4.07;;;1.97;;
2257;SDS011;1136;51.574;7.706;2022-12-29T12:02:54;7.70;;;1.87;;
2257;SDS011;1136;51.574;7.706;2022-12-29T12:05:39;2.80;;;1.30;;
2257;SDS011;1136;51.574;7.706;2022-12-29T12:11:12;5.53;;;1.40;;
2257;SDS011;1136;51.574;7.706;2022-12-29T12:13:52;4.00;;;1.40;;
2257;SDS011;1136;51.574;7.706;2022-12-29T12:16:27;6.30;;;1.77;;
2257;SDS011;1136;51.574;7.706;2022-12-29T12:19:37;12.07;;;1.83;;
2257;SDS011;1136;51.574;7.706;2022-12-29T12:22:13;4.77;;;1.50;;
2257;SDS011;1136;51.574;7.706;2022-12-29T12:27:26;4.90;;;1.40;;
2257;SDS011;1136;51.574;7.706;2022-12-29T12:29:59;4.73;;;2.07;;
2257;SDS011;1136;51.574;7.706;2022-12-29T12:32:35;3.20;;;1.30;;
2257;SDS011;1136;51.574;7.706;2022-12-29T12:35:11;10.07;;;1.73;;
2257;SDS011;1136;51.574;7.706;2022-12-29T12:43:55;3.07;;;1.43;;
2257;SDS011;1136;51.574;7.706;2022-12-29T12:52:29;3.90;;;1.40;;
2257;SDS011;1136;51.574;7.706;2022-12-29T12:55:26;3.33;;;1.30;;
2257;SDS011;1136;51.574;7.706;2022-12-29T12:58:15;3.20;;;1.20;;
2257;SDS011;1136;51.574;7.706;2022-12-29T13:07:07;3.23;;;1.53;;
2257;SDS011;1136;51.574;7.706;2022-12-29T13:15:47;2.70;;;1.67;;
2257;SDS011;1136;51.574;7.706;2022-12-29T13:21:27;3.00;;;1.30;;
2257;SDS011;1136;51.574;7.706;2022-12-29T13:24:00;4.43;;;1.63;;
2257;SDS011;1136;51.574;7.706;2022-12-29T13:31:40;3.60;;;1.80;;
2257;SDS011;1136;51.574;7.706;2022-12-29T13:34:36;6.47;;;1.50;;
2257;SDS011;1136;51.574;7.706;2022-12-29T13:37:35;5.30;;;2.03;;
2257;SDS011;1136;51.574;7.706;2022-12-29T13:40:17;5.50;;;1.63;;
2257;SDS011;1136;51.574;7.706;2022-12-29T13:42:45;4.30;;;1.67;;
2257;SDS011;1136;51.574;7.706;2022-12-29T13:45:19;3.13;;;1.43;;
2257;SDS011;1136;51.574;7.706;2022-12-29T13:50:36;4.10;;;1.50;;
2257;SDS011;1136;51.574;7.706;2022-12-29T14:08:54;3.33;;;1.30;;
2257;SDS011;1136;51.574;7.706;2022-12-29T14:11:24;4.83;;;1.63;;
2257;SDS011;1136;51.574;7.706;2022-12-29T14:13:59;6.03;;;1.80;;
2257;SDS011;1136;51.574;7.706;2022-12-29T14:16:37;3.90;;;1.60;;
2257;SDS011;1136;51.574;7.706;2022-12-29T14:19:05;5.10;;;1.90;;
2257;SDS011;1136;51.574;7.706;2022-12-29T14:21:37;6.43;;;2.00;;
2257;SDS011;1136;51.574;7.706;2022-12-29T14:32:49;4.87;;;1.40;;
2257;SDS011;1136;51.574;7.706;2022-12-29T14:34:59;6.00;;;1.60;;
2257;SDS011;1136;51.574;7.706;2022-12-29T14:37:31;6.00;;;2.17;;
2257;SDS011;1136;51.574;7.706;2022-12-29T14:40:18;3.23;;;1.33;;
2257;SDS011;1136;51.574;7.706;2022-12-29T14:42:49;4.20;;;1.23;;
2257;SDS011;1136;51.574;7.706;2022-12-29T14:47:43;8.23;;;2.33;;
2257;SDS011;1136;51.574;7.706;2022-12-29T14:58:12;10.87;;;2.50;;
2257;SDS011;1136;51.574;7.706;2022-12-29T15:00:41;7.50;;;2.00;;
2257;SDS011;1136;51.574;7.706;2022-12-29T15:05:51;5.13;;;2.03;;
2257;SDS011;1136;51.574;7.706;2022-12-29T15:08:21;3.53;;;1.60;;
2257;SDS011;1136;51.574;7.706;2022-12-29T15:10:53;3.40;;;1.80;;
2257;SDS011;1136;51.574;7.706;2022-12-29T15:13:24;5.53;;;1.70;;
2257;SDS011;1136;51.574;7.706;2022-12-29T15:15:58;4.17;;;1.53;;
2257;SDS011;1136;51.574;7.706;2022-12-29T15:18:28;4.43;;;1.60;;
2257;SDS011;1136;51.574;7.706;2022-12-29T15:20:59;3.97;;;1.60;;
2257;SDS011;1136;51.574;7.706;2022-12-29T15:23:27;7.37;;;1.60;;
2257;SDS011;1136;51.574;7.706;2022-12-29T15:31:06;5.53;;;2.50;;
2257;SDS011;1136;51.574;7.706;2022-12-29T15:33:38;2.10;;;1.60;;
2257;SDS011;1136;51.574;7.706;2022-12-29T15:36:10;2.97;;;1.67;;
2257;SDS011;1136;51.574;7.706;2022-12-29T15:38:39;2.33;;;1.60;;
2257;SDS011;1136;51.574;7.706;2022-12-29T15:41:12;4.03;;;2.30;;
2257;SDS011;1136;51.574;7.706;2022-12-29T15:44:20;3.73;;;1.60;;
2257;SDS011;1136;51.574;7.706;2022-12-29T15:46:50;1.50;;;1.23;;
2257;SDS011;1136;51.574;7.706;2022-12-29T15:49:17;3.93;;;1.63;;
2257;SDS011;1136;51.574;7.706;2022-12-29T15:51:43;3.93;;;2.10;;
2257;SDS011;1136;51.574;7.706;2022-12-29T15:54:16;3.13;;;1.30;;
2257;SDS011;1136;51.574;7.706;2022-12-29T15:56:44;3.40;;;1.33;;
2257;SDS011;1136;51.574;7.706;2022-12-29T16:01:50;6.80;;;1.73;;
2257;SDS011;1136;51.574;7.706;2022-12-29T16:04:17;3.83;;;1.97;;
2257;SDS011;1136;51.574;7.706;2022-12-29T16:06:44;3.53;;;1.67;;
2257;SDS011;1136;51.574;7.706;2022-12-29T16:12:02;6.30;;;1.40;;
2257;SDS011;1136;51.574;7.706;2022-12-29T16:14:37;2.43;;;1.70;;
2257;SDS011;1136;51.574;7.706;2022-12-29T16:17:13;4.93;;;1.50;;
2257;SDS011;1136;51.574;7.706;2022-12-29T16:19:49;3.10;;;1.53;;
2257;SDS011;1136;51.574;7.706;2022-12-29T16:22:25;4.07;;;1.60;;
2257;SDS011;1136;51.574;7.706;2022-12-29T16:24:57;4.57;;;1.57;;
2257;SDS011;1136;51.574;7.706;2022-12-29T16:27:36;3.00;;;1.50;;
2257;SDS011;1136;51.574;7.706;2022-12-29T16:30:05;4.97;;;1.80;;
2257;SDS011;1136;51.574;7.706;2022-12-29T16:32:44;3.00;;;1.70;;
2257;SDS011;1136;51.574;7.706;2022-12-29T16:35:22;2.17;;;1.30;;
2257;SDS011;1136;51.574;7.706;2022-12-29T16:40:51;4.30;;;1.47;;
2257;SDS011;1136;51.574;7.706;2022-12-29T16:43:39;2.53;;;1.57;;
2257;SDS011;1136;51.574;7.706;2022-12-29T16:46:16;3.53;;;1.40;;
2257;SDS011;1136;51.574;7.706;2022-12-29T16:48:55;5.40;;;1.80;;
2257;SDS011;1136;51.574;7.706;2022-12-29T16:51:32;3.90;;;1.70;;
2257;SDS011;1136;51.574;7.706;2022-12-29T16:54:04;6.20;;;2.77;;
2257;SDS011;1136;51.574;7.706;2022-12-29T16:56:34;5.33;;;1.53;;
2257;SDS011;1136;51.574;7.706;2022-12-29T17:01:47;4.83;;;1.53;;
2257;SDS011;1136;51.574;7.706;2022-12-29T17:04:14;3.53;;;1.70;;
2257;SDS011;1136;51.574;7.706;2022-12-29T17:06:40;4.07;;;1.80;;
2257;SDS011;1136;51.574;7.706;2022-12-29T17:09:17;4.00;;;1.70;;
2257;SDS011;1136;51.574;7.706;2022-12-29T17:11:44;1.93;;;1.30;;
2257;SDS011;1136;51.574;7.706;2022-12-29T17:19:42;4.90;;;1.70;;
2257;SDS011;1136;51.574;7.706;2022-12-29T17:22:13;5.63;;;2.03;;
2257;SDS011;1136;51.574;7.706;2022-12-29T17:24:45;5.00;;;2.63;;
2257;SDS011;1136;51.574;7.706;2022-12-29T17:27:18;6.03;;;2.30;;
2257;SDS011;1136;51.574;7.706;2022-12-29T17:29:51;4.97;;;1.80;;
2257;SDS011;1136;51.574;7.706;2022-12-29T17:32:19;8.10;;;2.10;;
2257;SDS011;1136;51.574;7.706;2022-12-29T17:34:45;5.40;;;2.03;;
2257;SDS011;1136;51.574;7.706;2022-12-29T17:39:55;13.00;;;3.87;;
2257;SDS011;1136;51.574;7.706;2022-12-29T17:42:21;8.17;;;2.30;;
2257;SDS011;1136;51.574;7.706;2022-12-29T17:44:48;5.93;;;1.83;;
2257;SDS011;1136;51.574;7.706;2022-12-29T17:47:15;5.07;;;2.00;;
2257;SDS011;1136;51.574;7.706;2022-12-29T17:49:42;6.17;;;2.70;;
2257;SDS011;1136;51.574;7.706;2022-12-29T17:52:12;10.47;;;2.73;;
2257;SDS011;1136;51.574;7.706;2022-12-29T17:54:41;6.60;;;2.53;;
2257;SDS011;1136;51.574;7.706;2022-12-29T17:57:12;5.53;;;1.63;;
2257;SDS011;1136;51.574;7.706;2022-12-29T17:59:39;11.43;;;2.40;;
2257;SDS011;1136;51.574;7.706;2022-12-29T18:02:21;6.90;;;2.27;;
2257;SDS011;1136;51.574;7.706;2022-12-29T18:04:51;5.37;;;1.90;;
2257;SDS011;1136;51.574;7.706;2022-12-29T18:07:18;3.30;;;1.33;;
2257;SDS011;1136;51.574;7.706;2022-12-29T18:09:44;5.77;;;2.00;;
2257;SDS011;1136;51.574;7.706;2022-12-29T18:14:53;2.53;;;1.30;;
2257;SDS011;1136;51.574;7.706;2022-12-29T18:17:20;3.70;;;1.20;;
2257;SDS011;1136;51.574;7.706;2022-12-29T18:19:47;3.90;;;1.63;;
2257;SDS011;1136;51.574;7.706;2022-12-29T18:22:15;2.50;;;1.67;;
2257;SDS011;1136;51.574;7.706;2022-12-29T18:24:42;3.63;;;1.63;;
2257;SDS011;1136;51.574;7.706;2022-12-29T18:27:12;2.87;;;1.80;;
2257;SDS011;1136;51.574;7.706;2022-12-29T18:29:39;4.00;;;1.53;;
2257;SDS011;1136;51.574;7.706;2022-12-29T18:32:13;4.97;;;1.90;;
2257;SDS011;1136;51.574;7.706;2022-12-29T18:34:40;2.00;;;1.80;;
2257;SDS011;1136;51.574;7.706;2022-12-29T18:37:08;2.73;;;2.00;;
2257;SDS011;1136;51.574;7.706;2022-12-29T18:39:34;8.60;;;2.40;;